createdAt,value
2023-05-19T00:03:55.291Z,16.26
2023-05-19T00:06:29.373Z,16.29
2023-05-19T00:09:02.111Z,16.21
2023-05-19T00:11:30.956Z,16.32
2023-05-19T00:14:00.531Z,16.19
2023-05-19T00:16:29.923Z,16.17
2023-05-19T00:19:00.496Z,16.10
2023-05-19T00:21:31.450Z,16.01
2023-05-19T00:23:59.363Z,16.08
2023-05-19T00:26:27.897Z,16.07
2023-05-19T00:29:01.099Z,16.16
2023-05-19T00:31:28.873Z,16.12
2023-05-19T00:33:56.495Z,16.11
2023-05-19T00:36:25.144Z,15.97
2023-05-19T00:38:52.637Z,15.89
2023-05-19T00:41:21.284Z,15.89
2023-05-19T00:43:49.646Z,15.82
2023-05-19T00:46:19.459Z,15.57
2023-05-19T00:48:47.034Z,15.71
2023-05-19T00:51:17.169Z,15.62
2023-05-19T00:53:49.478Z,15.28
2023-05-19T00:56:17.727Z,15.63
2023-05-19T00:58:45.852Z,15.56
2023-05-19T01:01:14.807Z,15.44
2023-05-19T01:04:11.538Z,15.36
2023-05-19T01:06:39.384Z,15.20
2023-05-19T01:09:06.812Z,15.31
2023-05-19T01:11:35.508Z,15.33
2023-05-19T01:14:03.215Z,15.38
2023-05-19T01:17:29.293Z,15.16
2023-05-19T01:20:06.882Z,15.24
2023-05-19T01:22:47.640Z,15.30
2023-05-19T01:25:50.925Z,15.21
2023-05-19T01:28:47.032Z,15.19
2023-05-19T01:31:17.247Z,15.13
2023-05-19T01:33:46.330Z,15.09
2023-05-19T01:36:15.965Z,15.15
2023-05-19T01:38:44.157Z,14.79
2023-05-19T01:41:12.087Z,15.15
2023-05-19T01:43:40.993Z,15.10
2023-05-19T01:46:09.325Z,15.00
2023-05-19T01:48:37.399Z,14.93
2023-05-19T01:51:05.224Z,14.87
2023-05-19T01:53:32.591Z,14.82
2023-05-19T01:56:00.908Z,14.70
2023-05-19T01:58:49.034Z,14.61
2023-05-19T02:01:36.546Z,14.25
2023-05-19T02:04:19.266Z,14.43
2023-05-19T02:07:03.946Z,14.29
2023-05-19T02:10:05.127Z,14.17
2023-05-19T02:12:36.156Z,13.93
2023-05-19T02:15:22.215Z,13.70
2023-05-19T02:17:54.558Z,13.54
2023-05-19T02:20:42.729Z,13.35
2023-05-19T02:23:10.262Z,13.26
2023-05-19T02:25:37.732Z,12.99
2023-05-19T02:28:06.929Z,12.84
2023-05-19T02:30:34.805Z,12.78
2023-05-19T02:33:02.429Z,12.70
2023-05-19T02:35:30.301Z,12.77
2023-05-19T02:37:58.048Z,12.75
2023-05-19T02:40:25.913Z,12.67
2023-05-19T02:42:53.902Z,12.71
2023-05-19T02:45:21.400Z,12.61
2023-05-19T02:47:48.949Z,12.57
2023-05-19T02:50:17.071Z,12.41
2023-05-19T02:52:44.809Z,12.69
2023-05-19T02:55:17.229Z,12.59
2023-05-19T02:57:45.136Z,12.43
2023-05-19T03:00:13.075Z,12.49
2023-05-19T03:02:41.607Z,12.48
2023-05-19T03:05:10.466Z,12.42
